createdAt,value
2023-03-24T00:00:39.860Z,15.00
2023-03-24T00:03:26.347Z,15.00
2023-03-24T00:06:13.990Z,14.60
2023-03-24T00:09:00.734Z,14.60
2023-03-24T00:11:47.165Z,15.00
2023-03-24T00:14:33.605Z,15.30
2023-03-24T00:17:20.275Z,15.10
2023-03-24T00:20:14.880Z,15.20
2023-03-24T00:23:00.963Z,15.30
2023-03-24T00:25:49.655Z,15.30
2023-03-24T00:28:37.162Z,15.30
2023-03-24T00:31:24.844Z,15.30
2023-03-24T00:34:11.398Z,15.30
2023-03-24T00:36:57.493Z,15.30
2023-03-24T00:39:43.767Z,15.20
2023-03-24T00:42:29.605Z,15.10
2023-03-24T00:45:20.905Z,14.70
2023-03-24T00:48:07.680Z,14.90
2023-03-24T00:50:54.162Z,14.70
2023-03-24T00:53:43.665Z,14.70
2023-03-24T00:56:33.155Z,14.70
2023-03-24T00:59:19.122Z,14.70
2023-03-24T01:02:05.529Z,14.60
2023-03-24T01:04:58.370Z,14.70
2023-03-24T01:07:45.086Z,14.60
2023-03-24T01:10:34.342Z,14.60
2023-03-24T01:13:28.963Z,14.50
2023-03-24T01:16:16.107Z,14.40
2023-03-24T01:19:02.397Z,14.20
2023-03-24T01:21:51.003Z,14.20
2023-03-24T01:24:37.179Z,14.10
2023-03-24T01:27:23.892Z,14.00
2023-03-24T01:30:13.273Z,13.90
2023-03-24T01:32:59.052Z,13.90
2023-03-24T01:35:45.140Z,13.90
2023-03-24T01:38:32.126Z,13.90
2023-03-24T01:41:18.265Z,13.90
2023-03-24T01:44:24.579Z,13.70
2023-03-24T01:47:10.762Z,13.70
2023-03-24T01:50:03.159Z,13.70
2023-03-24T01:52:50.277Z,13.50
2023-03-24T01:55:37.383Z,13.90
2023-03-24T01:58:27.918Z,13.80
2023-03-24T02:01:31.272Z,13.90
2023-03-24T02:04:44.968Z,14.00
2023-03-24T02:07:50.111Z,13.90
2023-03-24T02:10:37.684Z,13.90
2023-03-24T02:13:23.854Z,13.90
2023-03-24T02:16:37.593Z,13.80
2023-03-24T02:19:48.191Z,13.80
2023-03-24T02:23:05.283Z,13.80
2023-03-24T02:26:00.680Z,13.40
2023-03-24T02:29:08.600Z,13.40
2023-03-24T02:32:32.709Z,13.50
2023-03-24T02:35:39.495Z,13.50
2023-03-24T02:38:54.082Z,13.60
2023-03-24T02:41:51.980Z,13.60
2023-03-24T02:45:02.429Z,13.60
2023-03-24T02:47:51.733Z,13.60
2023-03-24T02:50:52.060Z,13.60
2023-03-24T02:54:01.849Z,13.60
2023-03-24T02:56:59.197Z,13.70
2023-03-24T03:00:20.459Z,13.60
2023-03-24T03:03:41.988Z,13.70
2023-03-24T03:06:33.626Z,13.70
2023-03-24T03:09:22.745Z,13.40
2023-03-24T03:12:12.826Z,13.30
2023-03-24T03:15:22.611Z,13.50
2023-03-24T03:18:17.927Z,13.50
2023-03-24T03:21:11.416Z,13.20
2023-03-24T03:24:03.694Z,13.00
2023-03-24T03:26:50.883Z,13.00
2023-03-24T03:29:43.841Z,12.90
2023-03-24T03:32:36.113Z,12.90
2023-03-24T03:35:31.129Z,12.90
2023-03-24T03:38:21.126Z,13.00
2023-03-24T03:41:07.528Z,13.00
2023-03-24T03:43:56.171Z,13.00
2023-03-24T03:46:43.115Z,13.20
2023-03-24T03:49:34.918Z,13.40
2023-03-24T03:52:21.560Z,12.80
2023-03-24T03:55:10.460Z,13.10
2023-03-24T03:57:56.287Z,13.20
2023-03-24T04:01:07.743Z,13.50
2023-03-24T04:04:22.043Z,13.70
2023-03-24T04:08:09.435Z,13.80
2023-03-24T04:11:46.434Z,13.60
2023-03-24T04:15:12.955Z,13.80
2023-03-24T04:18:50.559Z,13.80
2023-03-24T04:22:13.165Z,13.70
2023-03-24T04:25:25.869Z,13.60
2023-03-24T04:28:48.304Z,13.70
2023-03-24T04:31:49.689Z,13.70
2023-03-24T04:34:45.616Z,13.70
2023-03-24T04:37:51.056Z,13.50
2023-03-24T04:40:46.007Z,13.60
2023-03-24T04:43:38.363Z,13.60
2023-03-24T04:46:27.756Z,13.50
2023-03-24T04:49:27.492Z,13.60
2023-03-24T04:52:14.911Z,13.70
2023-03-24T04:55:03.739Z,13.50
2023-03-24T04:57:49.691Z,13.40
2023-03-24T05:00:39.872Z,13.50
2023-03-24T05:03:27.774Z,13.70
2023-03-24T05:06:13.448Z,13.50
2023-03-24T05:08:59.915Z,13.50
2023-03-24T05:11:49.392Z,13.60
2023-03-24T05:14:35.766Z,13.70
2023-03-24T05:17:24.724Z,13.70
2023-03-24T05:20:11.613Z,13.60
2023-03-24T05:23:01.737Z,13.50
2023-03-24T05:25:48.256Z,13.60
2023-03-24T05:28:35.923Z,13.70
2023-03-24T05:31:21.556Z,13.60
2023-03-24T05:34:12.925Z,13.30
2023-03-24T05:37:30.821Z,13.60
2023-03-24T05:40:17.034Z,13.50
2023-03-24T05:43:12.345Z,13.30
2023-03-24T05:46:02.559Z,12.90
2023-03-24T05:48:52.536Z,13.30
2023-03-24T05:51:40.039Z,13.60
2023-03-24T05:54:27.234Z,13.70
2023-03-24T05:57:34.761Z,13.50
2023-03-24T06:00:39.143Z,13.90
2023-03-24T06:03:34.840Z,13.70
2023-03-24T06:06:28.801Z,14.00
2023-03-24T06:09:17.201Z,14.20
2023-03-24T06:12:06.905Z,14.20
2023-03-24T06:14:55.174Z,14.60
2023-03-24T06:20:37.028Z,14.70
2023-03-24T06:23:31.183Z,14.90
2023-03-24T06:26:23.587Z,15.10
2023-03-24T06:29:18.436Z,15.10
2023-03-24T06:32:08.895Z,15.50
2023-03-24T06:35:00.349Z,15.80
2023-03-24T06:38:11.917Z,15.60
2023-03-24T06:41:03.803Z,15.60
2023-03-24T06:43:50.785Z,15.90
2023-03-24T06:46:37.330Z,16.30
2023-03-24T06:49:23.347Z,15.90
2023-03-24T06:52:10.593Z,16.00
2023-03-24T06:54:59.775Z,16.40
2023-03-24T06:57:49.134Z,16.70
2023-03-24T07:01:04.195Z,16.00
2023-03-24T07:04:25.852Z,15.60
2023-03-24T07:08:05.938Z,14.60
2023-03-24T07:10:49.445Z,14.40
2023-03-24T07:13:35.786Z,15.00
2023-03-24T07:16:24.229Z,14.60
2023-03-24T07:19:21.026Z,14.30
2023-03-24T07:22:12.422Z,14.30
2023-03-24T07:25:22.571Z,14.30
2023-03-24T07:28:17.145Z,14.80
2023-03-24T07:31:05.768Z,15.20
2023-03-24T07:33:52.335Z,15.00
2023-03-24T07:36:38.158Z,14.60
2023-03-24T07:39:28.056Z,15.30
2023-03-24T07:42:14.170Z,15.80
2023-03-24T07:45:20.568Z,15.90
2023-03-24T07:48:07.502Z,16.20
2023-03-24T07:50:57.619Z,16.10
2023-03-24T07:54:01.148Z,15.90
2023-03-24T07:56:52.393Z,15.60
2023-03-24T07:59:38.665Z,16.10
2023-03-24T08:02:29.494Z,16.10
2023-03-24T08:05:39.488Z,16.00
2023-03-24T08:08:39.089Z,15.50
2023-03-24T08:11:25.092Z,15.60
2023-03-24T08:14:11.380Z,16.20
2023-03-24T08:16:57.528Z,16.80
2023-03-24T08:19:58.444Z,16.90
2023-03-24T08:22:49.763Z,15.80
2023-03-24T08:25:36.567Z,15.30
2023-03-24T08:28:23.359Z,15.40
2023-03-24T08:31:09.766Z,16.00
2023-03-24T08:33:56.148Z,16.50
2023-03-24T08:36:42.266Z,16.60
2023-03-24T08:39:28.303Z,15.90
2023-03-24T08:42:14.624Z,16.00
2023-03-24T08:45:00.610Z,15.80
2023-03-24T08:47:46.999Z,15.90
2023-03-24T08:50:39.052Z,16.20
2023-03-24T08:53:25.753Z,16.60
2023-03-24T08:56:11.725Z,17.00
2023-03-24T08:58:58.165Z,15.90
2023-03-24T09:01:44.231Z,15.60
2023-03-24T09:04:30.552Z,16.30
2023-03-24T09:07:16.410Z,16.80
2023-03-24T09:10:02.627Z,16.20
2023-03-24T09:12:48.786Z,16.10
2023-03-24T09:15:34.684Z,16.60
2023-03-24T09:18:21.961Z,17.00
2023-03-24T09:21:08.428Z,17.60
2023-03-24T09:23:54.323Z,17.80
2023-03-24T09:26:40.862Z,17.50
2023-03-24T09:29:26.766Z,18.30
2023-03-24T09:32:13.079Z,19.50
2023-03-24T09:34:58.987Z,20.20
2023-03-24T09:37:45.767Z,21.00
2023-03-24T09:40:36.924Z,21.40
2023-03-24T09:43:52.181Z,22.20
2023-03-24T09:46:45.997Z,24.40
2023-03-24T09:49:37.439Z,25.30
2023-03-24T09:52:37.560Z,25.80
2023-03-24T09:55:28.367Z,26.50
2023-03-24T09:58:14.309Z,26.90
2023-03-24T10:01:00.425Z,26.80
2023-03-24T10:03:47.154Z,27.40
2023-03-24T10:06:43.191Z,27.80
2023-03-24T10:09:31.573Z,28.00
2023-03-24T10:12:32.776Z,28.20
2023-03-24T10:15:59.072Z,27.80
2023-03-24T10:19:02.336Z,26.70
2023-03-24T10:22:15.249Z,26.90
2023-03-24T10:25:14.009Z,26.80
2023-03-24T10:28:20.288Z,28.60
2023-03-24T10:31:14.386Z,28.20
2023-03-24T10:34:00.722Z,28.00
2023-03-24T10:36:47.045Z,28.30
2023-03-24T10:39:44.233Z,28.60
2023-03-24T10:42:35.593Z,28.50
2023-03-24T10:45:33.496Z,28.10
2023-03-24T10:48:45.770Z,28.30
2023-03-24T10:51:35.184Z,29.90
2023-03-24T10:54:26.866Z,30.30
2023-03-24T10:57:18.811Z,31.50
2023-03-24T11:00:19.308Z,29.90
2023-03-24T11:03:08.913Z,28.40
2023-03-24T11:06:01.549Z,27.70
2023-03-24T11:08:48.570Z,27.10
2023-03-24T11:11:35.979Z,26.80
2023-03-24T11:14:27.586Z,26.20
2023-03-24T11:17:16.243Z,27.10
2023-03-24T11:20:02.121Z,28.50
2023-03-24T11:23:10.906Z,29.20
2023-03-24T11:26:08.385Z,29.70
2023-03-24T11:29:00.502Z,30.40
2023-03-24T11:31:54.247Z,30.80
2023-03-24T11:34:53.080Z,30.80
2023-03-24T11:37:41.403Z,31.60
2023-03-24T11:40:27.612Z,31.90
2023-03-24T11:43:21.868Z,32.20
2023-03-24T11:46:20.728Z,33.50
2023-03-24T11:49:08.033Z,33.90
2023-03-24T11:51:55.652Z,32.20
2023-03-24T11:54:41.582Z,29.30
2023-03-24T11:57:57.226Z,26.80
2023-03-24T12:01:02.375Z,25.20
2023-03-24T12:04:16.421Z,23.90
2023-03-24T12:07:27.811Z,23.00
2023-03-24T12:10:50.718Z,22.90
2023-03-24T12:13:49.076Z,22.90
2023-03-24T12:17:00.404Z,22.90
2023-03-24T12:20:15.922Z,22.60
2023-03-24T12:23:11.010Z,21.40
2023-03-24T12:26:23.881Z,22.10
2023-03-24T12:29:37.555Z,22.40
2023-03-24T12:32:52.856Z,22.20
2023-03-24T12:36:00.056Z,21.70
2023-03-24T12:39:05.316Z,21.60
2023-03-24T12:42:10.587Z,21.80
2023-03-24T12:45:05.720Z,22.00
2023-03-24T12:48:07.965Z,22.00
2023-03-24T12:51:23.020Z,21.80
2023-03-24T12:54:21.917Z,21.60
2023-03-24T12:57:13.343Z,21.60
2023-03-24T13:00:13.110Z,21.50
2023-03-24T13:03:02.827Z,21.70
2023-03-24T13:06:04.464Z,21.60
2023-03-24T13:09:06.181Z,21.60
2023-03-24T13:12:15.211Z,21.70
2023-03-24T13:15:18.608Z,21.50
2023-03-24T13:18:18.861Z,21.50
2023-03-24T13:21:22.617Z,21.50
2023-03-24T13:24:13.601Z,21.60
2023-03-24T13:27:06.559Z,21.80
2023-03-24T13:30:07.460Z,21.80
2023-03-24T13:33:11.154Z,21.60
2023-03-24T13:36:25.486Z,21.80
2023-03-24T13:39:21.675Z,22.00
2023-03-24T13:42:08.249Z,21.60
2023-03-24T13:44:54.053Z,21.40
2023-03-24T13:48:29.515Z,21.40
2023-03-24T13:51:38.379Z,20.90
2023-03-24T13:54:27.341Z,20.80
2023-03-24T13:57:20.816Z,21.00
2023-03-24T14:00:21.211Z,21.30
2023-03-24T14:03:36.953Z,21.00
2023-03-24T14:06:50.066Z,20.60
2023-03-24T14:10:02.451Z,20.80
2023-03-24T14:12:55.704Z,20.60
2023-03-24T14:15:53.580Z,20.40
2023-03-24T14:18:42.381Z,20.70
2023-03-24T14:21:36.482Z,21.10
2023-03-24T14:24:31.088Z,21.10
2023-03-24T14:27:37.115Z,21.20
2023-03-24T14:30:38.283Z,21.20
2023-03-24T14:33:26.177Z,21.00
2023-03-24T14:36:19.115Z,20.70
2023-03-24T14:39:27.846Z,20.60
2023-03-24T14:42:37.064Z,20.70
2023-03-24T14:45:40.764Z,21.00
2023-03-24T14:48:43.396Z,20.40
2023-03-24T14:51:39.403Z,20.60
2023-03-24T14:54:38.382Z,20.90
2023-03-24T14:57:39.205Z,21.00
2023-03-24T15:03:59.625Z,21.30
2023-03-24T15:06:47.179Z,20.80
2023-03-24T15:09:38.800Z,20.60
2023-03-24T15:12:25.299Z,20.80
2023-03-24T15:15:24.844Z,21.90
2023-03-24T15:18:24.925Z,20.80
2023-03-24T15:21:39.436Z,20.70
2023-03-24T15:24:37.247Z,20.90
2023-03-24T15:27:26.720Z,21.20
2023-03-24T15:30:16.268Z,21.20
2023-03-24T15:33:02.566Z,21.20
2023-03-24T15:35:56.479Z,20.90
2023-03-24T15:38:47.431Z,22.10
2023-03-24T15:41:33.884Z,21.30
2023-03-24T15:44:24.404Z,21.10
2023-03-24T15:47:24.499Z,20.90
2023-03-24T15:50:32.311Z,20.80
2023-03-24T15:53:18.091Z,20.60
2023-03-24T15:56:34.638Z,20.40
2023-03-24T15:59:21.367Z,20.70
2023-03-24T16:02:20.875Z,20.30
2023-03-24T16:05:28.850Z,20.50
2023-03-24T16:08:41.329Z,20.40
2023-03-24T16:11:28.806Z,20.80
2023-03-24T16:14:21.018Z,21.30
2023-03-24T16:17:07.790Z,21.40
2023-03-24T16:19:53.770Z,21.30
2023-03-24T16:22:39.635Z,21.30
2023-03-24T16:25:25.623Z,21.40
2023-03-24T16:28:13.345Z,21.40
2023-03-24T16:31:03.098Z,21.50
2023-03-24T16:33:49.898Z,21.50
2023-03-24T16:36:36.078Z,21.40
2023-03-24T16:39:28.803Z,21.40
2023-03-24T16:42:15.602Z,21.40
2023-03-24T16:45:01.755Z,21.40
2023-03-24T16:47:48.026Z,21.30
2023-03-24T16:50:39.921Z,21.20
2023-03-24T16:53:26.283Z,21.10
2023-03-24T16:56:18.385Z,21.20
2023-03-24T16:59:05.893Z,21.10
2023-03-24T17:01:53.211Z,20.10
2023-03-24T17:04:41.322Z,20.80
2023-03-24T17:07:27.850Z,20.70
2023-03-24T17:10:14.572Z,20.80
2023-03-24T17:13:02.155Z,20.70
2023-03-24T17:15:48.692Z,20.40
2023-03-24T17:18:39.643Z,20.30
2023-03-24T17:21:25.488Z,20.30
2023-03-24T17:24:13.157Z,20.20
2023-03-24T17:26:59.364Z,20.10
2023-03-24T17:29:46.558Z,19.90
2023-03-24T17:32:33.764Z,19.80
2023-03-24T17:35:21.910Z,19.70
2023-03-24T17:38:08.205Z,19.60
2023-03-24T17:41:00.605Z,19.60
2023-03-24T17:43:47.266Z,19.60
2023-03-24T17:46:32.938Z,19.60
2023-03-24T17:49:19.760Z,19.60
2023-03-24T17:52:05.477Z,19.50
2023-03-24T17:54:51.181Z,19.20
2023-03-24T17:57:37.611Z,18.60
2023-03-24T18:00:24.026Z,18.50
2023-03-24T18:03:10.300Z,18.70
2023-03-24T18:05:56.735Z,18.80
2023-03-24T18:08:43.662Z,18.90
2023-03-24T18:11:30.180Z,18.90
2023-03-24T18:14:16.983Z,18.90
2023-03-24T18:17:03.842Z,18.70
2023-03-24T18:19:51.752Z,18.80
2023-03-24T18:22:41.270Z,19.10
2023-03-24T18:25:27.710Z,19.00
2023-03-24T18:28:13.659Z,19.10
2023-03-24T18:31:00.484Z,19.20
2023-03-24T18:33:47.454Z,19.30
2023-03-24T18:36:36.576Z,19.30
2023-03-24T18:39:23.025Z,18.90
2023-03-24T18:42:09.192Z,18.90
2023-03-24T18:44:55.071Z,18.90
2023-03-24T18:47:41.311Z,18.90
2023-03-24T18:50:27.432Z,19.20
2023-03-24T18:53:13.797Z,19.20
2023-03-24T18:55:59.507Z,19.10
2023-03-24T18:58:50.978Z,18.90
2023-03-24T19:01:38.134Z,18.90
2023-03-24T19:04:25.559Z,18.90
2023-03-24T19:07:14.907Z,18.70
2023-03-24T19:10:01.562Z,18.50
2023-03-24T19:12:47.936Z,18.70
2023-03-24T19:15:36.901Z,18.70
2023-03-24T19:18:24.232Z,18.40
2023-03-24T19:21:12.074Z,18.40
2023-03-24T19:23:59.083Z,18.40
2023-03-24T19:26:45.346Z,17.20
2023-03-24T19:29:31.645Z,18.40
2023-03-24T19:32:18.267Z,18.10
2023-03-24T19:35:04.346Z,18.10
2023-03-24T19:37:50.692Z,17.90
2023-03-24T19:40:36.832Z,17.70
2023-03-24T19:43:24.998Z,17.90
2023-03-24T19:46:11.242Z,17.80
2023-03-24T19:48:57.795Z,17.20
2023-03-24T19:51:45.484Z,17.90
2023-03-24T19:54:31.318Z,18.00
2023-03-24T19:57:17.615Z,18.00
2023-03-24T20:00:06.360Z,17.70
2023-03-24T20:02:52.583Z,17.60
2023-03-24T20:05:38.791Z,17.80
2023-03-24T20:08:26.337Z,17.90
2023-03-24T20:11:12.758Z,18.00
2023-03-24T20:13:59.083Z,18.00
2023-03-24T20:16:45.917Z,17.90
2023-03-24T20:19:32.609Z,17.80
2023-03-24T20:22:18.539Z,17.80
2023-03-24T20:25:05.312Z,17.90
2023-03-24T20:27:51.749Z,17.80
2023-03-24T20:30:39.967Z,17.80
2023-03-24T20:33:28.941Z,17.90
2023-03-24T20:36:15.449Z,17.70
2023-03-24T20:39:02.398Z,17.50
2023-03-24T20:41:48.691Z,17.40
2023-03-24T20:44:34.812Z,17.30
2023-03-24T20:47:21.593Z,17.30
2023-03-24T20:50:08.332Z,17.20
2023-03-24T20:52:54.307Z,17.10
2023-03-24T20:55:40.455Z,17.10
2023-03-24T20:58:27.594Z,17.10
2023-03-24T21:01:20.821Z,17.00
2023-03-24T21:04:09.265Z,17.00
2023-03-24T21:06:55.728Z,17.10
2023-03-24T21:09:41.700Z,17.20
2023-03-24T21:12:28.006Z,17.10
2023-03-24T21:15:15.302Z,17.20
2023-03-24T21:18:01.600Z,17.20
2023-03-24T21:20:56.210Z,17.10
2023-03-24T21:23:43.032Z,17.10
2023-03-24T21:26:28.939Z,17.10
2023-03-24T21:29:14.984Z,17.00
2023-03-24T21:32:01.256Z,16.90
2023-03-24T21:34:47.228Z,16.90
2023-03-24T21:37:32.937Z,16.90
2023-03-24T21:40:22.272Z,17.00
2023-03-24T21:43:08.713Z,16.90
2023-03-24T21:45:55.363Z,16.90
2023-03-24T21:48:51.552Z,17.00
2023-03-24T21:51:37.823Z,16.90
2023-03-24T21:54:23.893Z,17.10
2023-03-24T21:57:12.542Z,17.20
2023-03-24T22:00:02.128Z,17.10
2023-03-24T22:02:58.593Z,17.00
2023-03-24T22:05:44.740Z,16.90
2023-03-24T22:08:30.721Z,17.10
2023-03-24T22:11:19.185Z,16.90
2023-03-24T22:14:05.361Z,16.90
2023-03-24T22:16:52.772Z,16.70
2023-03-24T22:19:39.090Z,16.70
2023-03-24T22:22:24.890Z,16.70
2023-03-24T22:25:13.144Z,16.70
2023-03-24T22:27:59.459Z,16.70
2023-03-24T22:30:45.509Z,16.70
2023-03-24T22:33:32.241Z,17.60
2023-03-24T22:36:18.103Z,16.60
2023-03-24T22:39:05.119Z,16.70
2023-03-24T22:41:51.225Z,16.70
2023-03-24T22:44:37.559Z,16.80
2023-03-24T22:47:23.975Z,16.80
2023-03-24T22:50:10.785Z,16.90
2023-03-24T22:52:57.198Z,16.80
2023-03-24T22:55:44.891Z,16.70
2023-03-24T22:58:30.539Z,16.80
2023-03-24T23:01:17.160Z,16.80
2023-03-24T23:04:03.557Z,16.80
2023-03-24T23:06:49.618Z,16.90
2023-03-24T23:09:36.599Z,17.00
2023-03-24T23:12:25.384Z,17.00
2023-03-24T23:15:14.189Z,17.10
2023-03-24T23:18:00.576Z,17.20
2023-03-24T23:20:48.095Z,17.20
2023-03-24T23:23:35.652Z,17.10
2023-03-24T23:26:25.894Z,17.20
2023-03-24T23:29:14.220Z,17.20
2023-03-24T23:32:00.465Z,17.20
2023-03-24T23:34:48.781Z,17.00
2023-03-24T23:37:36.283Z,17.00
2023-03-24T23:40:21.827Z,17.20
2023-03-24T23:43:07.993Z,17.20
2023-03-24T23:45:58.895Z,17.20
2023-03-24T23:48:45.247Z,17.20
2023-03-24T23:51:31.782Z,16.70
2023-03-24T23:54:17.668Z,16.20
2023-03-24T23:57:06.074Z,15.80
2023-03-24T23:59:53.055Z,16.30
